createdAt,value
2018-12-09T00:01:19.620Z,92.70
2018-12-09T00:03:47.683Z,92.60
2018-12-09T00:06:15.773Z,93.00
2018-12-09T00:08:43.970Z,92.90
2018-12-09T00:11:12.023Z,93.00
2018-12-09T00:13:40.107Z,93.00
2018-12-09T00:16:08.188Z,93.00
2018-12-09T00:18:36.281Z,93.00
2018-12-09T00:21:04.363Z,93.00
2018-12-09T00:23:32.428Z,92.90
2018-12-09T00:26:00.517Z,93.20
2018-12-09T00:28:28.578Z,92.90
2018-12-09T00:30:56.642Z,92.90
2018-12-09T00:33:24.711Z,92.70
2018-12-09T00:35:52.858Z,92.80
2018-12-09T00:38:21.288Z,92.70
2018-12-09T00:40:49.366Z,92.70
2018-12-09T00:43:17.454Z,92.80
2018-12-09T00:45:45.523Z,92.70
2018-12-09T00:48:13.582Z,92.70
2018-12-09T00:50:41.650Z,92.70
2018-12-09T00:53:09.723Z,92.60
2018-12-09T00:55:37.809Z,92.30
2018-12-09T00:58:05.888Z,91.90
2018-12-09T01:00:33.941Z,91.80
2018-12-09T01:03:01.999Z,91.80
2018-12-09T01:05:30.300Z,91.80
2018-12-09T01:07:58.475Z,91.30
2018-12-09T01:10:26.540Z,91.50
2018-12-09T01:12:54.597Z,91.20
2018-12-09T01:15:22.765Z,91.50
2018-12-09T01:17:50.843Z,91.00
2018-12-09T01:20:18.915Z,90.80
2018-12-09T01:22:47.001Z,90.70
2018-12-09T01:25:15.379Z,90.90
2018-12-09T01:27:43.555Z,91.40
2018-12-09T01:30:11.702Z,91.20
2018-12-09T01:32:39.986Z,91.10
2018-12-09T01:35:08.170Z,91.30
2018-12-09T01:37:36.762Z,91.30
2018-12-09T01:40:06.271Z,91.20
2018-12-09T01:42:34.434Z,91.40
2018-12-09T01:45:02.504Z,91.60
2018-12-09T01:47:30.562Z,91.60
2018-12-09T01:49:58.659Z,92.00
2018-12-09T01:52:26.750Z,92.70
2018-12-09T01:54:54.811Z,92.50
2018-12-09T01:57:22.889Z,93.00
2018-12-09T01:59:51.387Z,92.60
2018-12-09T02:02:19.448Z,92.90
2018-12-09T02:04:47.512Z,93.30
2018-12-09T02:07:15.596Z,92.80
2018-12-09T02:09:43.764Z,92.80
2018-12-09T02:12:11.859Z,92.80
2018-12-09T02:14:39.944Z,92.70
2018-12-09T02:17:08.027Z,93.10
2018-12-09T02:19:36.085Z,93.10
2018-12-09T02:22:04.172Z,93.40
2018-12-09T02:24:32.231Z,93.20
2018-12-09T02:27:00.311Z,93.10
2018-12-09T02:29:28.383Z,93.30
2018-12-09T02:31:56.521Z,93.00
2018-12-09T02:34:24.571Z,93.00
2018-12-09T02:36:52.752Z,93.40
2018-12-09T02:39:20.846Z,92.70
2018-12-09T02:41:48.930Z,92.70
2018-12-09T02:44:16.999Z,92.70
2018-12-09T02:46:45.095Z,92.90
2018-12-09T02:49:13.177Z,92.70
2018-12-09T02:51:41.352Z,92.70
2018-12-09T02:54:09.771Z,92.70
2018-12-09T02:56:38.277Z,92.80
2018-12-09T02:59:06.350Z,92.30
2018-12-09T03:01:34.394Z,92.70
2018-12-09T03:04:02.482Z,92.70
2018-12-09T03:06:30.569Z,93.40
2018-12-09T03:08:58.644Z,92.50
2018-12-09T03:11:26.709Z,92.80
2018-12-09T03:13:55.007Z,92.70
2018-12-09T03:16:23.081Z,92.60
2018-12-09T03:18:51.154Z,92.50
2018-12-09T03:21:19.364Z,92.90
2018-12-09T03:23:47.427Z,92.80
2018-12-09T03:26:15.518Z,93.30
2018-12-09T03:28:43.607Z,93.30
2018-12-09T03:31:12.535Z,93.70
2018-12-09T03:33:40.593Z,93.60
2018-12-09T03:36:08.651Z,93.70
2018-12-09T03:38:36.707Z,93.70
2018-12-09T03:41:04.789Z,93.30
2018-12-09T03:43:32.866Z,93.60
2018-12-09T03:46:00.919Z,93.40
2018-12-09T03:48:29.015Z,93.70
2018-12-09T03:50:57.075Z,93.70
2018-12-09T03:53:25.136Z,93.50
2018-12-09T03:55:53.213Z,93.20
2018-12-09T03:58:21.309Z,94.10
2018-12-09T04:00:49.368Z,93.30
2018-12-09T04:03:17.445Z,93.80
2018-12-09T04:05:45.533Z,94.00
2018-12-09T04:08:13.609Z,93.90
2018-12-09T04:10:41.691Z,93.50
2018-12-09T04:13:09.818Z,93.90
2018-12-09T04:15:39.956Z,93.60
2018-12-09T04:18:08.456Z,93.60
2018-12-09T04:20:37.044Z,93.40
2018-12-09T04:23:05.113Z,93.90
2018-12-09T04:25:33.201Z,94.00
2018-12-09T04:28:01.285Z,93.10
2018-12-09T04:30:29.692Z,93.60
2018-12-09T04:32:57.765Z,93.10
2018-12-09T04:35:25.852Z,93.20
2018-12-09T04:37:53.929Z,92.40
2018-12-09T04:40:22.006Z,92.60
2018-12-09T04:42:50.061Z,93.00
2018-12-09T04:45:18.240Z,92.90
2018-12-09T04:47:46.320Z,94.10
2018-12-09T04:50:14.402Z,92.90
2018-12-09T04:52:42.467Z,92.50
2018-12-09T04:55:10.517Z,93.10
2018-12-09T04:57:38.614Z,93.10
2018-12-09T05:00:18.663Z,92.70
2018-12-09T05:02:46.730Z,92.60
2018-12-09T05:05:14.809Z,92.80
2018-12-09T05:07:42.993Z,93.00
2018-12-09T05:10:11.081Z,92.50
2018-12-09T05:12:39.171Z,91.60
2018-12-09T05:15:07.359Z,92.20
2018-12-09T05:17:35.456Z,92.20
2018-12-09T05:20:03.862Z,92.50
2018-12-09T05:22:31.927Z,92.30
2018-12-09T05:25:00.003Z,92.20
2018-12-09T05:27:28.510Z,91.50
2018-12-09T05:29:56.863Z,91.00
2018-12-09T05:32:24.921Z,91.80
2018-12-09T05:34:53.017Z,92.00
2018-12-09T05:37:21.110Z,91.70
2018-12-09T05:39:50.055Z,92.00
2018-12-09T05:42:18.144Z,92.10
2018-12-09T05:44:46.216Z,92.10
2018-12-09T05:47:14.290Z,92.00
2018-12-09T05:49:42.370Z,92.00
2018-12-09T05:52:10.796Z,92.50
2018-12-09T05:54:38.868Z,92.40
2018-12-09T05:57:06.972Z,92.50
2018-12-09T05:59:35.050Z,92.40
2018-12-09T06:02:15.184Z,92.40
2018-12-09T06:04:43.273Z,92.30
2018-12-09T06:07:11.339Z,92.10
2018-12-09T06:09:39.438Z,92.20
2018-12-09T06:12:07.516Z,92.00
2018-12-09T06:14:35.901Z,91.90
2018-12-09T06:17:04.083Z,91.80
2018-12-09T06:19:32.165Z,91.90
2018-12-09T06:22:00.270Z,91.80
2018-12-09T06:24:28.332Z,91.90
2018-12-09T06:26:56.607Z,91.70
2018-12-09T06:29:24.699Z,91.80
2018-12-09T06:31:52.779Z,91.50
2018-12-09T06:34:20.940Z,91.20
2018-12-09T06:36:49.015Z,91.50
2018-12-09T06:39:17.069Z,90.80
2018-12-09T06:41:45.143Z,91.40
2018-12-09T06:44:13.206Z,91.40
2018-12-09T06:46:41.269Z,91.30
2018-12-09T06:49:09.325Z,91.00
2018-12-09T06:51:37.408Z,91.00
2018-12-09T06:54:05.483Z,91.30
2018-12-09T06:56:33.563Z,91.30
2018-12-09T06:59:01.639Z,91.10
2018-12-09T07:01:30.785Z,91.20
2018-12-09T07:03:59.279Z,91.30
2018-12-09T07:06:27.386Z,91.40
2018-12-09T07:08:55.718Z,91.40
2018-12-09T07:11:23.795Z,91.40
2018-12-09T07:13:51.850Z,91.20
2018-12-09T07:16:20.445Z,91.20
2018-12-09T07:18:48.630Z,91.30
2018-12-09T07:21:16.707Z,91.10
2018-12-09T07:23:44.793Z,91.30
2018-12-09T07:26:12.873Z,91.20
2018-12-09T07:28:41.656Z,91.20
2018-12-09T07:31:09.745Z,91.10
2018-12-09T07:33:38.085Z,91.00
2018-12-09T07:36:06.143Z,91.10
2018-12-09T07:38:34.207Z,91.20
2018-12-09T07:41:02.610Z,91.10
2018-12-09T07:43:30.675Z,90.80
2018-12-09T07:45:58.756Z,90.80
2018-12-09T07:48:26.832Z,90.90
2018-12-09T07:50:54.895Z,90.80
2018-12-09T07:53:23.410Z,90.70
2018-12-09T07:55:51.474Z,90.80
2018-12-09T07:58:19.556Z,91.10
2018-12-09T08:00:47.746Z,90.90
2018-12-09T08:03:15.822Z,91.00
2018-12-09T08:05:43.904Z,91.00
2018-12-09T08:08:11.979Z,90.70
2018-12-09T08:10:40.048Z,90.80
2018-12-09T08:13:08.143Z,91.00
2018-12-09T08:15:36.224Z,91.90
2018-12-09T08:18:04.408Z,91.90
2018-12-09T08:20:32.626Z,91.90
2018-12-09T08:23:00.702Z,92.30
2018-12-09T08:25:28.768Z,91.80
2018-12-09T08:27:56.841Z,91.70
2018-12-09T08:30:24.925Z,91.60
2018-12-09T08:32:52.996Z,91.50
2018-12-09T08:35:21.146Z,91.30
2018-12-09T08:37:49.207Z,91.30
2018-12-09T08:40:17.284Z,91.20
2018-12-09T08:42:45.359Z,91.20
2018-12-09T08:45:13.428Z,91.30
2018-12-09T08:47:41.504Z,91.30
2018-12-09T08:50:09.594Z,91.40
2018-12-09T08:52:37.669Z,91.10
2018-12-09T08:55:05.725Z,91.30
2018-12-09T08:57:33.803Z,91.10
2018-12-09T09:00:01.907Z,91.40
2018-12-09T09:02:29.997Z,91.20
2018-12-09T09:04:58.075Z,91.40
2018-12-09T09:07:26.127Z,91.00
2018-12-09T09:09:54.185Z,91.10
2018-12-09T09:12:22.361Z,90.90
2018-12-09T09:14:50.431Z,91.10
2018-12-09T09:17:18.620Z,91.00
2018-12-09T09:19:46.694Z,91.00
2018-12-09T09:22:14.773Z,91.10
2018-12-09T09:24:42.847Z,91.00
2018-12-09T09:27:10.923Z,90.90
2018-12-09T09:29:39.000Z,90.70
2018-12-09T09:32:07.086Z,90.70
2018-12-09T09:34:35.162Z,90.40
2018-12-09T09:37:03.242Z,90.60
2018-12-09T09:39:31.320Z,91.00
2018-12-09T09:41:59.379Z,90.40
2018-12-09T09:44:27.489Z,90.40
2018-12-09T09:46:55.683Z,90.40
2018-12-09T09:49:23.743Z,90.30
2018-12-09T09:51:51.831Z,89.20
2018-12-09T09:54:19.925Z,88.80
2018-12-09T09:56:48.013Z,88.20
2018-12-09T09:59:16.120Z,88.90
2018-12-09T10:01:44.204Z,88.30
2018-12-09T10:04:12.284Z,88.40
2018-12-09T10:06:40.334Z,88.20
2018-12-09T10:09:08.421Z,88.30
2018-12-09T10:11:36.484Z,84.60
2018-12-09T10:14:04.564Z,74.30
2018-12-09T10:16:32.659Z,58.80
2018-12-09T10:19:00.742Z,58.90
2018-12-09T10:21:28.819Z,54.60
2018-12-09T10:23:56.901Z,56.90
2018-12-09T10:26:24.958Z,60.50
2018-12-09T10:28:53.048Z,63.50
2018-12-09T10:31:21.158Z,64.80
2018-12-09T10:33:49.648Z,69.40
2018-12-09T10:36:18.437Z,72.90
2018-12-09T10:38:46.533Z,74.60
2018-12-09T10:41:14.607Z,77.50
2018-12-09T10:43:42.685Z,79.10
2018-12-09T10:46:10.774Z,80.20
2018-12-09T10:48:38.843Z,81.20
2018-12-09T10:51:06.905Z,82.10
2018-12-09T10:53:34.988Z,82.20
2018-12-09T10:56:03.126Z,82.10
2018-12-09T10:58:31.194Z,82.10
2018-12-09T11:01:04.970Z,82.70
2018-12-09T11:03:33.244Z,81.80
2018-12-09T11:06:01.308Z,82.60
2018-12-09T11:08:29.393Z,83.20
2018-12-09T11:10:57.476Z,82.90
2018-12-09T11:13:25.548Z,83.10
2018-12-09T11:15:53.623Z,82.10
2018-12-09T11:18:21.725Z,83.00
2018-12-09T11:20:49.797Z,82.60
2018-12-09T11:23:17.872Z,83.50
2018-12-09T11:25:45.961Z,83.20
2018-12-09T11:28:14.041Z,83.60
2018-12-09T11:30:42.113Z,83.30
2018-12-09T11:33:10.198Z,83.40
2018-12-09T11:35:38.257Z,84.10
2018-12-09T11:38:06.338Z,83.00
2018-12-09T11:40:34.646Z,83.20
2018-12-09T11:43:02.742Z,83.40
2018-12-09T11:45:30.811Z,81.80
2018-12-09T11:47:58.881Z,82.90
2018-12-09T11:50:26.961Z,81.70
2018-12-09T11:52:55.013Z,82.60
2018-12-09T11:55:23.475Z,82.10
2018-12-09T11:57:51.539Z,82.40
2018-12-09T12:00:19.613Z,82.70
2018-12-09T12:02:47.684Z,81.90
2018-12-09T12:05:15.745Z,82.70
2018-12-09T12:07:43.819Z,82.00
2018-12-09T12:10:11.888Z,82.00
2018-12-09T12:12:39.954Z,82.00
2018-12-09T12:15:08.539Z,80.90
2018-12-09T12:17:36.633Z,82.40
2018-12-09T12:20:06.711Z,82.10
2018-12-09T12:22:34.771Z,82.00
2018-12-09T12:25:02.957Z,82.00
2018-12-09T12:27:31.009Z,82.00
2018-12-09T12:29:59.089Z,82.60
2018-12-09T12:32:27.158Z,80.70
2018-12-09T12:34:55.227Z,82.00
2018-12-09T12:37:23.348Z,82.70
2018-12-09T12:39:51.422Z,82.00
2018-12-09T12:42:19.519Z,82.00
2018-12-09T12:44:47.709Z,82.20
2018-12-09T12:47:15.765Z,82.70
2018-12-09T12:49:44.039Z,82.60
2018-12-09T12:52:12.123Z,82.60
2018-12-09T12:54:40.258Z,82.40
2018-12-09T12:57:08.325Z,82.00
2018-12-09T12:59:36.418Z,82.10
2018-12-09T13:02:04.498Z,82.10
2018-12-09T13:04:32.553Z,82.20
2018-12-09T13:07:00.718Z,82.30
2018-12-09T13:09:28.765Z,82.10
2018-12-09T13:11:56.855Z,82.00
2018-12-09T13:14:24.910Z,82.00
2018-12-09T13:16:53.288Z,82.10
2018-12-09T13:19:21.380Z,82.70
2018-12-09T13:21:49.447Z,82.00
2018-12-09T13:24:17.513Z,82.10
2018-12-09T13:26:45.603Z,82.00
2018-12-09T13:29:13.776Z,82.00
2018-12-09T13:31:41.827Z,82.00
2018-12-09T13:34:09.902Z,82.00
2018-12-09T13:36:38.093Z,82.00
2018-12-09T13:39:06.258Z,83.30
2018-12-09T13:41:34.444Z,82.90
2018-12-09T13:44:02.956Z,82.00
2018-12-09T13:46:31.039Z,82.00
2018-12-09T13:48:59.115Z,82.00
2018-12-09T13:51:27.204Z,80.90
2018-12-09T13:53:55.610Z,81.90
2018-12-09T13:56:23.694Z,81.90
2018-12-09T13:58:51.785Z,80.80
2018-12-09T14:01:19.845Z,81.90
2018-12-09T14:03:47.924Z,81.80
2018-12-09T14:06:16.000Z,82.70
2018-12-09T14:08:44.079Z,83.10
2018-12-09T14:11:12.164Z,82.50
2018-12-09T14:13:40.245Z,82.90
2018-12-09T14:16:08.418Z,82.10
2018-12-09T14:18:38.411Z,82.40
2018-12-09T14:21:06.671Z,82.60
2018-12-09T14:23:34.758Z,82.60
2018-12-09T14:26:03.351Z,81.90
2018-12-09T14:28:31.429Z,81.90
2018-12-09T14:30:59.487Z,81.90
2018-12-09T14:33:27.661Z,82.00
2018-12-09T14:35:55.836Z,82.10
2018-12-09T14:38:23.877Z,82.50
2018-12-09T14:40:51.945Z,83.10
2018-12-09T14:43:20.024Z,82.40
2018-12-09T14:45:49.057Z,82.60
2018-12-09T14:48:17.474Z,82.60
2018-12-09T14:50:45.549Z,82.60
2018-12-09T14:53:13.631Z,83.00
2018-12-09T14:55:42.006Z,83.20
2018-12-09T14:58:10.088Z,83.00
2018-12-09T15:00:38.149Z,83.80
2018-12-09T15:03:06.220Z,84.20
2018-12-09T15:05:34.295Z,84.80
2018-12-09T15:08:02.353Z,85.00
2018-12-09T15:10:30.424Z,85.10
2018-12-09T15:12:58.661Z,84.90
2018-12-09T15:15:26.718Z,84.80
2018-12-09T15:17:54.809Z,84.90
2018-12-09T15:20:22.875Z,84.70
2018-12-09T15:22:50.952Z,84.90
2018-12-09T15:25:19.042Z,84.60
2018-12-09T15:27:47.120Z,84.70
2018-12-09T15:30:15.210Z,85.00
2018-12-09T15:32:43.276Z,84.70
2018-12-09T15:35:11.372Z,84.30
2018-12-09T15:37:39.449Z,84.60
2018-12-09T15:40:07.529Z,84.50
2018-12-09T15:42:35.587Z,84.50
2018-12-09T15:45:03.774Z,84.30
2018-12-09T15:47:31.853Z,84.30
2018-12-09T15:49:59.923Z,84.10
2018-12-09T15:52:28.003Z,84.40
2018-12-09T15:54:56.087Z,84.20
2018-12-09T15:57:24.152Z,84.40
2018-12-09T15:59:52.243Z,84.40
2018-12-09T16:02:20.312Z,84.50
2018-12-09T16:04:48.375Z,84.60
2018-12-09T16:07:16.466Z,83.80
2018-12-09T16:09:44.544Z,84.40
2018-12-09T16:12:14.168Z,84.90
2018-12-09T16:14:42.385Z,85.00
2018-12-09T16:17:10.461Z,84.90
2018-12-09T16:19:38.550Z,85.00
2018-12-09T16:22:06.626Z,85.10
2018-12-09T16:24:34.731Z,85.10
2018-12-09T16:27:02.898Z,85.10
2018-12-09T16:29:30.975Z,85.40
2018-12-09T16:31:59.033Z,85.10
2018-12-09T16:34:27.107Z,85.40
2018-12-09T16:36:55.188Z,85.40
2018-12-09T16:39:23.276Z,85.30
2018-12-09T16:41:51.352Z,84.80
2018-12-09T16:44:19.428Z,85.30
2018-12-09T16:46:47.499Z,85.40
2018-12-09T16:49:15.558Z,85.50
2018-12-09T16:51:43.640Z,85.60
2018-12-09T16:54:12.026Z,85.70
2018-12-09T16:56:40.110Z,85.70
2018-12-09T16:59:08.161Z,85.80
2018-12-09T17:01:36.224Z,85.80
2018-12-09T17:04:04.423Z,85.70
2018-12-09T17:06:32.534Z,85.80
2018-12-09T17:09:00.813Z,86.00
2018-12-09T17:11:28.872Z,86.00
2018-12-09T17:13:56.953Z,86.00
2018-12-09T17:16:25.041Z,86.10
2018-12-09T17:18:53.106Z,86.40
2018-12-09T17:21:21.314Z,86.60
2018-12-09T17:23:49.782Z,86.80
2018-12-09T17:26:17.841Z,86.70
2018-12-09T17:28:45.951Z,87.20
2018-12-09T17:31:14.018Z,85.30
2018-12-09T17:33:42.070Z,85.10
2018-12-09T17:36:10.385Z,85.30
2018-12-09T17:38:38.444Z,85.70
2018-12-09T17:41:06.519Z,85.70
2018-12-09T17:43:34.600Z,86.80
2018-12-09T17:46:02.713Z,86.50
2018-12-09T17:48:30.796Z,86.60
2018-12-09T17:50:58.874Z,86.00
2018-12-09T17:53:26.963Z,86.10
2018-12-09T17:55:55.063Z,85.40
2018-12-09T17:58:23.164Z,85.30
2018-12-09T18:00:51.237Z,84.70
2018-12-09T18:03:19.293Z,84.50
2018-12-09T18:05:47.369Z,84.40
2018-12-09T18:08:15.425Z,84.50
2018-12-09T18:10:43.988Z,84.90
2018-12-09T18:13:12.061Z,84.60
2018-12-09T18:15:40.142Z,83.80
2018-12-09T18:18:08.223Z,83.50
2018-12-09T18:20:36.330Z,83.40
2018-12-09T18:23:04.395Z,83.20
2018-12-09T18:25:32.471Z,82.40
2018-12-09T18:28:00.553Z,82.80
2018-12-09T18:30:29.167Z,82.50
2018-12-09T18:32:57.393Z,82.60
2018-12-09T18:35:25.600Z,82.70
2018-12-09T18:37:53.976Z,82.50
2018-12-09T18:40:22.058Z,82.00
2018-12-09T18:42:50.394Z,82.50
2018-12-09T18:45:18.719Z,82.00
2018-12-09T18:47:46.827Z,81.70
2018-12-09T18:50:14.904Z,80.50
2018-12-09T18:52:43.011Z,79.90
2018-12-09T18:55:11.533Z,80.10
2018-12-09T18:57:39.603Z,79.80
2018-12-09T19:00:07.687Z,77.80
2018-12-09T19:02:35.755Z,78.10
2018-12-09T19:05:05.263Z,79.30
2018-12-09T19:07:33.332Z,79.80
2018-12-09T19:10:02.338Z,79.60
2018-12-09T19:12:30.612Z,79.70
2018-12-09T19:14:58.685Z,79.60
2018-12-09T19:17:26.838Z,79.80
2018-12-09T19:19:55.617Z,78.20
2018-12-09T19:22:23.710Z,79.10
2018-12-09T19:24:51.796Z,79.60
2018-12-09T19:27:19.866Z,79.30
2018-12-09T19:29:47.959Z,79.50
2018-12-09T19:32:16.037Z,79.50
2018-12-09T19:34:44.097Z,80.20
2018-12-09T19:37:12.273Z,80.00
2018-12-09T19:39:40.703Z,79.40
2018-12-09T19:42:08.783Z,79.40
2018-12-09T19:44:36.827Z,80.10
2018-12-09T19:47:04.964Z,79.40
2018-12-09T19:49:33.290Z,79.50
2018-12-09T19:52:01.368Z,79.40
2018-12-09T19:54:29.421Z,79.40
2018-12-09T19:56:57.473Z,79.40
2018-12-09T19:59:25.575Z,79.30
2018-12-09T20:01:53.640Z,79.30
2018-12-09T20:04:21.701Z,79.20
2018-12-09T20:06:49.779Z,78.10
2018-12-09T20:09:17.869Z,79.20
2018-12-09T20:11:45.933Z,79.20
2018-12-09T20:14:14.021Z,79.20
2018-12-09T20:16:42.077Z,79.20
2018-12-09T20:19:10.154Z,79.20
2018-12-09T20:21:38.267Z,79.20
2018-12-09T20:24:12.006Z,79.10
2018-12-09T20:26:40.066Z,78.10
2018-12-09T20:29:08.149Z,79.90
2018-12-09T20:31:36.241Z,79.20
2018-12-09T20:34:04.380Z,79.00
2018-12-09T20:36:32.468Z,79.10
2018-12-09T20:39:00.527Z,79.50
2018-12-09T20:41:28.600Z,79.30
2018-12-09T20:43:56.696Z,79.40
2018-12-09T20:46:24.760Z,79.60
2018-12-09T20:48:52.831Z,79.20
2018-12-09T20:51:20.917Z,79.50
2018-12-09T20:53:48.991Z,79.40
2018-12-09T20:56:17.053Z,78.90
2018-12-09T20:58:45.101Z,79.70
2018-12-09T21:01:13.198Z,79.40
2018-12-09T21:03:41.275Z,79.20
2018-12-09T21:06:09.335Z,79.70
2018-12-09T21:08:37.403Z,79.80
2018-12-09T21:11:05.477Z,79.60
2018-12-09T21:13:33.542Z,79.80
2018-12-09T21:16:01.615Z,80.00
2018-12-09T21:18:29.679Z,80.30
2018-12-09T21:20:58.673Z,80.50
2018-12-09T21:23:26.740Z,80.60
2018-12-09T21:25:54.793Z,80.70
2018-12-09T21:28:22.877Z,80.80
2018-12-09T21:30:50.943Z,80.90
2018-12-09T21:33:19.034Z,81.60
2018-12-09T21:35:47.095Z,81.10
2018-12-09T21:38:15.180Z,81.20
2018-12-09T21:40:43.268Z,81.30
2018-12-09T21:43:11.353Z,81.40
2018-12-09T21:45:39.430Z,81.30
2018-12-09T21:48:07.730Z,81.30
2018-12-09T21:50:35.817Z,81.40
2018-12-09T21:53:03.891Z,81.60
2018-12-09T21:55:31.966Z,81.60
2018-12-09T21:58:00.113Z,81.50
2018-12-09T22:00:28.248Z,81.50
2018-12-09T22:02:56.322Z,81.30
2018-12-09T22:05:24.425Z,81.50
2018-12-09T22:07:52.492Z,81.70
2018-12-09T22:10:20.596Z,81.60
2018-12-09T22:12:48.653Z,81.60
2018-12-09T22:15:17.177Z,81.60
2018-12-09T22:17:45.570Z,81.60
2018-12-09T22:20:13.644Z,81.80
2018-12-09T22:22:41.725Z,82.00
2018-12-09T22:25:09.821Z,81.90
2018-12-09T22:27:38.187Z,82.10
2018-12-09T22:30:06.472Z,82.30
2018-12-09T22:32:34.658Z,82.20
2018-12-09T22:35:02.935Z,82.20
2018-12-09T22:37:31.021Z,82.30
2018-12-09T22:39:59.088Z,82.30
2018-12-09T22:42:27.176Z,82.30
2018-12-09T22:44:55.266Z,82.40
2018-12-09T22:47:23.339Z,82.30
2018-12-09T22:49:51.403Z,82.30
2018-12-09T22:52:19.502Z,82.30
2018-12-09T22:54:47.560Z,82.50
2018-12-09T22:57:15.667Z,82.60
2018-12-09T22:59:43.743Z,82.60
2018-12-09T23:02:17.481Z,82.70
2018-12-09T23:04:45.545Z,82.80
2018-12-09T23:07:19.200Z,83.10
2018-12-09T23:09:47.257Z,83.40
2018-12-09T23:12:15.339Z,83.50
2018-12-09T23:14:43.409Z,83.40
2018-12-09T23:17:11.479Z,83.90
2018-12-09T23:19:39.595Z,84.00
2018-12-09T23:22:07.659Z,84.10
2018-12-09T23:24:35.733Z,83.90
2018-12-09T23:27:03.805Z,83.80
2018-12-09T23:29:31.876Z,84.20
2018-12-09T23:31:59.970Z,84.80
2018-12-09T23:34:28.058Z,84.50
2018-12-09T23:36:56.134Z,84.50
2018-12-09T23:39:24.185Z,84.40
2018-12-09T23:41:52.255Z,84.90
2018-12-09T23:44:20.942Z,85.70
2018-12-09T23:46:49.006Z,84.70
2018-12-09T23:49:17.096Z,85.40
2018-12-09T23:51:45.161Z,85.80
2018-12-09T23:54:13.221Z,85.40
2018-12-09T23:56:41.273Z,85.80
2018-12-09T23:59:09.354Z,86.00
